createdAt,value
2023-03-12T00:00:25.242Z,22.90
2023-03-12T00:01:24.276Z,20.00
2023-03-12T00:02:24.326Z,15.50
2023-03-12T00:03:24.373Z,21.50
2023-03-12T00:04:24.231Z,24.10
2023-03-12T00:05:24.239Z,25.40
2023-03-12T00:06:24.222Z,24.10
2023-03-12T00:07:24.208Z,21.90
2023-03-12T00:08:24.215Z,19.10
2023-03-12T00:09:24.141Z,26.00
2023-03-12T00:10:24.199Z,39.20
2023-03-12T00:11:24.140Z,36.20
2023-03-12T00:12:24.160Z,27.20
2023-03-12T00:13:24.228Z,23.70
2023-03-12T00:14:24.112Z,30.90
2023-03-12T00:15:24.062Z,31.00
2023-03-12T00:16:24.169Z,36.10
2023-03-12T00:17:24.080Z,30.20
2023-03-12T00:18:24.045Z,31.20
2023-03-12T00:19:24.151Z,30.50
2023-03-12T00:20:24.060Z,30.60
2023-03-12T00:21:24.020Z,28.30
2023-03-12T00:22:24.020Z,26.20
2023-03-12T00:23:23.994Z,29.50
2023-03-12T00:24:23.987Z,45.50
2023-03-12T00:25:24.035Z,39.60
2023-03-12T00:26:23.943Z,20.40
2023-03-12T00:27:23.911Z,23.30
2023-03-12T00:28:23.956Z,26.70
2023-03-12T00:29:23.874Z,33.00
2023-03-12T00:30:23.948Z,31.60
2023-03-12T00:31:23.979Z,33.10
2023-03-12T00:32:23.937Z,32.90
2023-03-12T00:33:23.823Z,24.80
2023-03-12T00:34:23.890Z,51.40
2023-03-12T00:35:23.844Z,37.30
2023-03-12T00:36:23.836Z,28.70
2023-03-12T00:37:23.941Z,28.50
2023-03-12T00:38:23.800Z,27.00
2023-03-12T00:39:23.753Z,24.20
2023-03-12T00:40:23.798Z,28.10
2023-03-12T00:41:23.728Z,30.20
2023-03-12T00:42:23.735Z,23.10
2023-03-12T00:43:23.807Z,32.00
2023-03-12T00:44:23.741Z,42.80
2023-03-12T00:45:23.669Z,42.70
2023-03-12T00:46:23.741Z,45.50
2023-03-12T00:47:23.674Z,39.90
2023-03-12T00:48:23.664Z,28.40
2023-03-12T00:49:23.772Z,27.30
2023-03-12T00:50:23.638Z,27.30
2023-03-12T00:51:23.649Z,27.50
2023-03-12T00:52:23.596Z,24.30
2023-03-12T00:53:23.636Z,27.70
2023-03-12T00:54:23.564Z,25.30
2023-03-12T00:55:23.700Z,21.90
2023-03-12T00:56:23.575Z,43.50
2023-03-12T00:57:23.552Z,37.80
2023-03-12T00:58:23.533Z,39.00
2023-03-12T00:59:23.543Z,42.50
2023-03-12T01:00:23.487Z,41.60
2023-03-12T01:01:23.641Z,36.00
2023-03-12T01:02:23.459Z,28.30
2023-03-12T01:03:23.470Z,30.90
2023-03-12T01:04:23.547Z,30.30
2023-03-12T01:05:23.465Z,25.50
2023-03-12T01:06:23.424Z,14.80
2023-03-12T01:07:23.440Z,40.50
2023-03-12T01:08:23.409Z,36.00
2023-03-12T01:09:23.396Z,28.80
2023-03-12T01:10:23.389Z,25.60
2023-03-12T01:11:23.389Z,22.70
2023-03-12T01:12:23.339Z,21.40
2023-03-12T01:13:23.419Z,22.10
2023-03-12T01:14:23.340Z,23.60
2023-03-12T01:15:23.314Z,20.10
2023-03-12T01:16:23.424Z,22.10
2023-03-12T01:17:23.315Z,25.30
2023-03-12T01:18:23.284Z,22.90
2023-03-12T01:19:23.412Z,20.10
2023-03-12T01:20:23.296Z,20.00
2023-03-12T01:21:23.252Z,20.30
2023-03-12T01:22:23.225Z,16.90
2023-03-12T01:23:23.257Z,26.70
2023-03-12T01:24:23.201Z,24.40
2023-03-12T01:25:23.276Z,16.80
2023-03-12T01:26:23.169Z,17.40
2023-03-12T01:27:23.181Z,18.00
2023-03-12T01:28:23.165Z,19.60
2023-03-12T01:29:23.172Z,22.30
2023-03-12T01:30:23.155Z,24.10
2023-03-12T01:31:23.245Z,19.20
2023-03-12T01:32:23.173Z,18.50
2023-03-12T01:33:23.176Z,19.30
2023-03-12T01:34:23.064Z,20.00
2023-03-12T01:35:23.128Z,20.00
2023-03-12T01:36:23.269Z,19.20
2023-03-12T01:37:23.178Z,19.80
2023-03-12T01:38:22.998Z,16.90
2023-03-12T01:39:23.029Z,20.20
2023-03-12T01:40:23.027Z,17.90
2023-03-12T01:41:23.020Z,18.40
2023-03-12T01:42:22.999Z,20.40
2023-03-12T01:43:23.133Z,20.30
2023-03-12T01:44:22.941Z,18.90
2023-03-12T01:45:22.964Z,18.80
2023-03-12T01:46:22.925Z,20.60
2023-03-12T01:47:22.931Z,19.80
2023-03-12T01:48:22.905Z,18.50
2023-03-12T01:49:22.934Z,20.00
2023-03-12T01:50:22.878Z,20.30
2023-03-12T01:51:22.975Z,16.30
2023-03-12T01:52:22.807Z,19.20
2023-03-12T01:53:22.866Z,19.80
2023-03-12T01:54:22.817Z,19.20
2023-03-12T01:55:22.832Z,19.50
2023-03-12T01:56:22.798Z,20.90
2023-03-12T01:57:22.783Z,20.30
2023-03-12T01:58:22.792Z,18.30
2023-03-12T01:59:22.780Z,20.20
2023-03-12T02:00:22.718Z,20.40
2023-03-12T02:01:22.873Z,21.10
2023-03-12T02:02:22.676Z,16.10
2023-03-12T02:03:22.723Z,18.50
2023-03-12T02:04:22.720Z,20.00
2023-03-12T02:05:22.695Z,17.90
2023-03-12T02:06:22.667Z,15.50
2023-03-12T02:07:22.756Z,29.60
2023-03-12T02:08:22.604Z,21.70
2023-03-12T02:09:22.651Z,17.50
2023-03-12T02:10:22.624Z,18.50
2023-03-12T02:11:22.986Z,19.80
2023-03-12T02:12:22.616Z,17.90
2023-03-12T02:13:22.746Z,17.60
2023-03-12T02:14:22.550Z,19.30
2023-03-12T02:15:22.554Z,20.10
2023-03-12T02:16:22.566Z,15.00
2023-03-12T02:17:22.528Z,21.30
2023-03-12T02:18:22.509Z,19.30
2023-03-12T02:19:22.638Z,18.60
2023-03-12T02:20:22.497Z,16.90
2023-03-12T02:21:22.504Z,20.30
2023-03-12T02:22:22.428Z,20.50
2023-03-12T02:23:22.441Z,17.60
2023-03-12T02:24:22.434Z,17.20
2023-03-12T02:25:22.506Z,19.20
2023-03-12T02:26:22.409Z,19.90
2023-03-12T02:27:22.410Z,16.40
2023-03-12T02:28:22.378Z,18.70
2023-03-12T02:29:22.360Z,20.10
2023-03-12T02:30:22.335Z,20.40
2023-03-12T02:31:22.449Z,20.30
2023-03-12T02:32:22.334Z,19.10
2023-03-12T02:33:22.364Z,18.20
2023-03-12T02:34:22.288Z,20.50
2023-03-12T02:35:22.304Z,19.80
2023-03-12T02:36:22.265Z,20.00
2023-03-12T02:37:22.300Z,19.60
2023-03-12T02:38:22.250Z,18.60
2023-03-12T02:39:22.268Z,19.00
2023-03-12T02:40:22.204Z,19.70
2023-03-12T02:41:22.235Z,19.20
2023-03-12T02:42:22.188Z,17.00
2023-03-12T02:43:22.239Z,17.30
2023-03-12T02:44:22.141Z,19.40
2023-03-12T02:45:22.208Z,18.70
2023-03-12T02:46:22.209Z,15.90
2023-03-12T02:47:22.148Z,18.10
2023-03-12T02:48:22.122Z,17.70
2023-03-12T02:49:22.158Z,18.30
2023-03-12T02:50:22.085Z,18.10
2023-03-12T02:51:22.103Z,15.40
2023-03-12T02:52:22.078Z,16.00
2023-03-12T02:53:22.176Z,18.50
2023-03-12T02:54:22.035Z,19.80
2023-03-12T02:55:22.065Z,18.60
2023-03-12T02:56:22.031Z,17.30
2023-03-12T02:57:22.015Z,19.20
2023-03-12T02:58:21.977Z,17.70
2023-03-12T02:59:22.025Z,19.50
2023-03-12T03:00:21.948Z,19.30
2023-03-12T03:01:22.146Z,19.80
2023-03-12T03:02:21.947Z,20.20
2023-03-12T03:03:21.930Z,16.60
2023-03-12T03:04:21.948Z,17.00
2023-03-12T03:05:22.852Z,19.40
2023-03-12T03:06:21.897Z,19.30
2023-03-12T03:07:21.937Z,14.60
2023-03-12T03:08:21.841Z,19.60
2023-03-12T03:09:21.882Z,19.00
2023-03-12T03:10:21.803Z,17.90
2023-03-12T03:11:21.829Z,17.90
2023-03-12T03:12:21.835Z,21.30
2023-03-12T03:13:21.871Z,19.90
2023-03-12T03:14:21.771Z,17.10
2023-03-12T03:15:21.781Z,19.40
2023-03-12T03:16:21.770Z,19.20
2023-03-12T03:17:21.752Z,18.20
2023-03-12T03:18:21.749Z,16.60
2023-03-12T03:19:21.791Z,18.70
2023-03-12T03:20:21.698Z,19.10
2023-03-12T03:21:21.787Z,16.70
2023-03-12T03:22:21.661Z,16.80
2023-03-12T03:23:21.684Z,17.00
2023-03-12T03:24:21.661Z,16.70
2023-03-12T03:25:21.683Z,16.30
2023-03-12T03:26:21.653Z,17.50
2023-03-12T03:27:21.643Z,17.60
2023-03-12T03:28:21.599Z,16.00
2023-03-12T03:29:21.605Z,14.90
2023-03-12T03:30:21.591Z,18.30
2023-03-12T03:31:21.745Z,16.30
2023-03-12T03:32:21.557Z,13.80
2023-03-12T03:33:21.565Z,16.40
2023-03-12T03:34:21.578Z,17.40
2023-03-12T03:35:21.528Z,15.40
2023-03-12T03:36:21.531Z,14.50
2023-03-12T03:37:21.527Z,18.40
2023-03-12T03:38:21.493Z,17.50
2023-03-12T03:39:21.492Z,16.50
2023-03-12T03:40:21.469Z,16.70
2023-03-12T03:41:21.473Z,20.20
2023-03-12T03:42:21.404Z,16.30
2023-03-12T03:43:21.546Z,18.90
2023-03-12T03:44:21.413Z,22.00
2023-03-12T03:45:21.432Z,17.00
2023-03-12T03:46:22.147Z,20.30
2023-03-12T03:47:21.379Z,21.10
2023-03-12T03:48:21.350Z,15.10
2023-03-12T03:49:21.449Z,20.90
2023-03-12T03:50:21.315Z,22.10
2023-03-12T03:51:21.351Z,15.70
2023-03-12T03:52:21.277Z,21.50
2023-03-12T03:53:21.336Z,20.20
2023-03-12T03:54:21.256Z,19.40
2023-03-12T03:55:21.290Z,15.20
2023-03-12T03:56:21.277Z,21.50
2023-03-12T03:57:21.249Z,21.10
2023-03-12T03:58:21.228Z,16.70
2023-03-12T03:59:21.242Z,16.70
2023-03-12T04:00:21.180Z,20.70
2023-03-12T04:01:21.249Z,17.00
2023-03-12T04:02:21.146Z,14.50
2023-03-12T04:03:21.208Z,20.30
2023-03-12T04:04:21.156Z,20.80
2023-03-12T04:05:21.164Z,17.70
2023-03-12T04:06:21.125Z,18.60
2023-03-12T04:07:21.281Z,21.00
2023-03-12T04:08:21.073Z,20.50
2023-03-12T04:09:21.126Z,15.20
2023-03-12T04:10:21.040Z,18.80
2023-03-12T04:11:21.182Z,21.20
2023-03-12T04:12:21.046Z,20.40
2023-03-12T04:13:21.162Z,16.60
2023-03-12T04:14:21.024Z,19.70
2023-03-12T04:15:21.043Z,21.00
2023-03-12T04:16:21.016Z,17.70
2023-03-12T04:17:21.049Z,17.00
2023-03-12T04:18:21.006Z,21.80
2023-03-12T04:19:21.095Z,19.20
2023-03-12T04:20:20.923Z,18.40
2023-03-12T04:21:20.959Z,21.40
2023-03-12T04:22:20.900Z,21.40
2023-03-12T04:23:20.911Z,20.80
2023-03-12T04:24:21.849Z,16.20
2023-03-12T04:25:20.913Z,22.40
2023-03-12T04:26:20.859Z,20.90
2023-03-12T04:27:20.878Z,21.10
2023-03-12T04:28:20.831Z,17.20
2023-03-12T04:29:20.868Z,18.40
2023-03-12T04:30:20.798Z,20.70
2023-03-12T04:31:20.902Z,18.60
2023-03-12T04:32:20.828Z,19.20
2023-03-12T04:33:20.809Z,20.70
2023-03-12T04:34:20.735Z,21.30
2023-03-12T04:35:20.744Z,22.30
2023-03-12T04:36:20.742Z,19.80
2023-03-12T04:37:20.767Z,22.20
2023-03-12T04:38:20.712Z,32.00
2023-03-12T04:39:20.724Z,27.90
2023-03-12T04:40:20.659Z,20.90
2023-03-12T04:41:20.704Z,22.10
2023-03-12T04:42:20.654Z,23.10
2023-03-12T04:43:20.695Z,25.00
2023-03-12T04:44:20.633Z,23.30
2023-03-12T04:45:20.641Z,20.20
2023-03-12T04:46:20.648Z,25.40
2023-03-12T04:47:20.636Z,24.20
2023-03-12T04:48:20.564Z,19.50
2023-03-12T04:49:20.698Z,21.40
2023-03-12T04:50:20.567Z,22.20
2023-03-12T04:51:20.576Z,22.90
2023-03-12T04:52:20.512Z,17.80
2023-03-12T04:53:20.571Z,21.10
2023-03-12T04:54:20.491Z,23.70
2023-03-12T04:55:20.522Z,18.90
2023-03-12T04:56:20.489Z,23.10
2023-03-12T04:57:20.496Z,25.70
2023-03-12T04:58:20.457Z,23.90
2023-03-12T04:59:20.470Z,22.50
2023-03-12T05:00:20.395Z,23.80
2023-03-12T05:01:20.525Z,20.90
2023-03-12T05:02:20.385Z,22.80
2023-03-12T05:03:20.396Z,26.20
2023-03-12T05:04:20.385Z,23.50
2023-03-12T05:05:20.371Z,20.10
2023-03-12T05:06:20.355Z,24.20
2023-03-12T05:07:20.347Z,23.10
2023-03-12T05:08:20.358Z,20.80
2023-03-12T05:09:20.378Z,25.60
2023-03-12T05:10:20.325Z,25.70
2023-03-12T05:11:20.295Z,19.00
2023-03-12T05:12:20.283Z,26.80
2023-03-12T05:13:20.384Z,27.40
2023-03-12T05:14:20.287Z,24.00
2023-03-12T05:15:20.231Z,23.90
2023-03-12T05:16:20.291Z,28.90
2023-03-12T05:17:20.187Z,28.90
2023-03-12T05:18:20.233Z,24.00
2023-03-12T05:19:20.212Z,23.40
2023-03-12T05:20:20.179Z,27.20
2023-03-12T05:21:20.128Z,27.60
2023-03-12T05:22:20.176Z,19.70
2023-03-12T05:23:20.133Z,26.80
2023-03-12T05:24:20.131Z,30.60
2023-03-12T05:25:20.143Z,30.10
2023-03-12T05:26:20.100Z,23.60
2023-03-12T05:27:20.060Z,21.90
2023-03-12T05:28:20.104Z,24.50
2023-03-12T05:29:20.037Z,23.20
2023-03-12T05:30:20.090Z,21.80
2023-03-12T05:31:20.172Z,18.50
2023-03-12T05:32:20.052Z,23.40
2023-03-12T05:33:20.015Z,23.70
2023-03-12T05:34:19.990Z,21.20
2023-03-12T05:35:19.971Z,26.00
2023-03-12T05:36:20.021Z,18.90
2023-03-12T05:37:19.998Z,20.30
2023-03-12T05:38:19.940Z,20.90
2023-03-12T05:39:19.897Z,23.20
2023-03-12T05:40:19.949Z,22.50
2023-03-12T05:41:19.903Z,19.10
2023-03-12T05:42:19.919Z,20.20
2023-03-12T05:43:20.032Z,22.50
2023-03-12T05:44:19.859Z,24.80
2023-03-12T05:45:19.847Z,23.80
2023-03-12T05:46:19.832Z,17.90
2023-03-12T05:47:19.801Z,20.20
2023-03-12T05:48:19.840Z,21.90
2023-03-12T05:49:19.813Z,22.80
2023-03-12T05:50:19.812Z,22.10
2023-03-12T05:51:19.778Z,18.40
2023-03-12T05:52:19.765Z,20.50
2023-03-12T05:53:19.739Z,23.20
2023-03-12T05:54:19.789Z,22.90
2023-03-12T05:55:19.753Z,21.20
2023-03-12T05:56:19.706Z,19.10
2023-03-12T05:57:19.694Z,21.30
2023-03-12T05:58:19.671Z,25.20
2023-03-12T05:59:19.636Z,25.40
2023-03-12T06:00:19.677Z,20.60
2023-03-12T06:01:19.742Z,22.70
2023-03-12T06:02:19.677Z,33.50
2023-03-12T06:03:19.643Z,27.80
2023-03-12T06:04:19.590Z,25.00
2023-03-12T06:05:19.582Z,23.10
2023-03-12T06:06:19.570Z,26.30
2023-03-12T06:07:19.569Z,28.70
2023-03-12T06:08:19.577Z,28.00
2023-03-12T06:09:19.506Z,29.80
2023-03-12T06:10:19.537Z,22.90
2023-03-12T06:11:19.512Z,25.80
2023-03-12T06:12:19.484Z,26.30
2023-03-12T06:13:19.520Z,24.50
2023-03-12T06:14:19.466Z,19.10
2023-03-12T06:15:19.423Z,24.20
2023-03-12T06:16:19.502Z,23.90
2023-03-12T06:17:19.401Z,17.70
2023-03-12T06:18:19.446Z,22.90
2023-03-12T06:19:19.507Z,13.40
2023-03-12T06:20:19.386Z,44.40
2023-03-12T06:21:19.379Z,34.70
2023-03-12T06:22:19.362Z,34.70
2023-03-12T06:23:21.528Z,31.10
2023-03-12T06:24:19.359Z,25.80
2023-03-12T06:25:19.355Z,25.60
2023-03-12T06:26:19.303Z,13.10
2023-03-12T06:27:19.261Z,47.00
2023-03-12T06:28:19.299Z,47.00
2023-03-12T06:29:19.242Z,38.00
2023-03-12T06:30:19.282Z,30.30
2023-03-12T06:31:19.324Z,28.20
2023-03-12T06:32:19.266Z,29.90
2023-03-12T06:33:19.200Z,33.70
2023-03-12T06:34:19.222Z,21.90
2023-03-12T06:35:19.166Z,30.80
2023-03-12T06:36:19.201Z,12.60
2023-03-12T06:37:19.246Z,36.10
2023-03-12T06:38:19.193Z,21.40
2023-03-12T06:39:19.136Z,19.10
2023-03-12T06:40:19.124Z,32.30
2023-03-12T06:41:19.088Z,15.70
2023-03-12T06:42:19.148Z,30.80
2023-03-12T06:43:19.195Z,13.40
2023-03-12T06:44:19.056Z,51.00
2023-03-12T06:45:19.052Z,47.70
2023-03-12T06:46:19.103Z,39.40
2023-03-12T06:47:19.007Z,28.40
2023-03-12T06:48:19.072Z,29.00
2023-03-12T06:49:18.991Z,12.30
2023-03-12T06:50:19.001Z,58.80
2023-03-12T06:51:18.961Z,53.50
2023-03-12T06:52:18.953Z,44.60
2023-03-12T06:53:18.953Z,35.60
2023-03-12T06:54:18.930Z,33.00
2023-03-12T06:55:18.908Z,31.40
2023-03-12T06:56:18.934Z,16.50
2023-03-12T06:57:18.885Z,16.60
2023-03-12T06:58:19.176Z,57.40
2023-03-12T06:59:18.827Z,44.50
2023-03-12T07:00:18.875Z,42.70
2023-03-12T07:01:18.839Z,35.70
2023-03-12T07:02:18.916Z,27.60
2023-03-12T07:03:18.818Z,12.50
2023-03-12T07:04:18.790Z,72.50
2023-03-12T07:05:18.806Z,69.50
2023-03-12T07:06:18.775Z,49.80
2023-03-12T07:07:19.121Z,36.00
2023-03-12T07:08:18.776Z,30.10
2023-03-12T07:09:18.712Z,11.70
2023-03-12T07:10:18.752Z,76.90
2023-03-12T07:11:18.712Z,70.80
2023-03-12T07:12:18.695Z,46.70
2023-03-12T07:13:18.792Z,11.80
2023-03-12T07:14:18.667Z,45.80
2023-03-12T07:15:18.636Z,37.70
2023-03-12T07:16:18.905Z,33.30
2023-03-12T07:17:18.610Z,34.30
2023-03-12T07:18:18.643Z,11.20
2023-03-12T07:19:18.636Z,53.90
2023-03-12T07:20:18.591Z,75.50
2023-03-12T07:21:18.577Z,61.70
2023-03-12T07:22:18.568Z,36.80
2023-03-12T07:23:18.529Z,34.00
2023-03-12T07:24:18.737Z,11.10
2023-03-12T07:25:19.118Z,45.70
2023-03-12T07:26:18.707Z,68.90
2023-03-12T07:27:18.784Z,66.40
2023-03-12T07:28:18.630Z,13.70
2023-03-12T07:29:18.564Z,31.50
2023-03-12T07:30:18.560Z,27.40
2023-03-12T07:31:18.550Z,10.50
2023-03-12T07:32:18.477Z,78.10
2023-03-12T07:33:18.499Z,79.20
2023-03-12T07:34:18.583Z,45.10
2023-03-12T07:35:18.565Z,38.20
2023-03-12T07:36:18.575Z,40.70
2023-03-12T07:37:18.513Z,10.50
2023-03-12T07:38:18.482Z,19.20
2023-03-12T07:39:18.380Z,87.20
2023-03-12T07:40:18.415Z,82.30
2023-03-12T07:41:18.324Z,16.90
2023-03-12T07:42:18.391Z,38.30
2023-03-12T07:43:20.410Z,25.30
2023-03-12T07:44:18.317Z,10.70
2023-03-12T07:45:18.342Z,79.40
2023-03-12T07:46:18.355Z,81.00
2023-03-12T07:47:24.179Z,48.80
2023-03-12T07:48:19.338Z,38.30
2023-03-12T07:49:18.193Z,10.80
2023-03-12T07:50:18.279Z,11.80
2023-03-12T07:51:18.198Z,70.10
2023-03-12T07:52:18.318Z,71.40
2023-03-12T07:53:18.172Z,16.50
2023-03-12T07:54:18.211Z,55.30
2023-03-12T07:55:18.224Z,40.70
2023-03-12T07:56:18.235Z,36.10
2023-03-12T07:57:18.311Z,18.90
2023-03-12T07:59:48.140Z,10.80
2023-03-12T08:00:29.312Z,10.80
2023-03-12T08:01:29.334Z,70.60
2023-03-12T08:02:29.229Z,68.10
2023-03-12T08:03:29.518Z,35.80
2023-03-12T08:04:29.217Z,24.70
2023-03-12T08:05:29.141Z,43.90
2023-03-12T08:06:29.053Z,34.70
2023-03-12T08:07:29.050Z,31.60
2023-03-12T08:08:29.069Z,11.50
2023-03-12T08:09:28.958Z,32.10
2023-03-12T08:10:29.117Z,64.20
2023-03-12T08:11:28.980Z,67.00
2023-03-12T08:12:29.025Z,12.10
2023-03-12T08:13:28.974Z,48.40
2023-03-12T08:14:28.975Z,37.10
2023-03-12T08:15:28.938Z,34.80
2023-03-12T08:16:28.971Z,22.20
2023-03-12T08:17:29.008Z,12.00
2023-03-12T08:18:28.914Z,61.70
2023-03-12T08:19:28.830Z,80.60
2023-03-12T08:20:29.003Z,50.60
2023-03-12T08:21:28.809Z,33.30
2023-03-12T08:22:28.827Z,13.50
2023-03-12T08:23:28.845Z,12.10
2023-03-12T08:24:28.804Z,67.00
2023-03-12T08:25:28.774Z,77.60
2023-03-12T08:26:28.803Z,49.20
2023-03-12T08:27:28.727Z,37.30
2023-03-12T08:28:28.749Z,11.00
2023-03-12T08:29:28.767Z,17.50
2023-03-12T08:30:30.293Z,79.40
2023-03-12T08:31:28.781Z,73.50
2023-03-12T08:32:28.825Z,47.90
2023-03-12T08:33:28.652Z,11.40
2023-03-12T08:34:28.664Z,11.40
2023-03-12T08:35:28.780Z,63.80
2023-03-12T08:36:28.636Z,72.30
2023-03-12T08:37:28.634Z,38.10
2023-03-12T08:38:28.636Z,11.50
2023-03-12T08:39:28.570Z,11.30
2023-03-12T08:40:28.653Z,56.40
2023-03-12T08:41:28.600Z,76.00
2023-03-12T08:42:28.570Z,45.90
2023-03-12T08:43:29.469Z,10.60
2023-03-12T08:44:28.529Z,10.90
2023-03-12T08:45:28.666Z,95.90
2023-03-12T08:46:28.545Z,67.70
2023-03-12T08:47:28.493Z,39.50
2023-03-12T08:48:28.510Z,12.80
2023-03-12T08:49:28.442Z,11.30
2023-03-12T08:50:28.488Z,79.20
2023-03-12T08:51:28.447Z,87.80
2023-03-12T08:52:28.426Z,43.50
2023-03-12T08:53:28.579Z,11.70
2023-03-12T08:54:28.425Z,11.70
2023-03-12T08:55:28.387Z,78.60
2023-03-12T08:56:28.404Z,89.20
2023-03-12T08:57:28.379Z,47.60
2023-03-12T08:58:28.370Z,11.20
2023-03-12T08:59:28.475Z,11.30
2023-03-12T09:00:28.366Z,78.90
2023-03-12T09:01:28.278Z,99.20
2023-03-12T09:02:28.300Z,51.90
2023-03-12T09:03:28.345Z,11.30
2023-03-12T09:04:28.321Z,11.60
2023-03-12T09:05:28.297Z,82.00
2023-03-12T09:06:28.655Z,59.70
2023-03-12T09:07:28.203Z,43.60
2023-03-12T09:08:28.258Z,11.20
2023-03-12T09:09:28.197Z,11.20
2023-03-12T09:10:30.804Z,72.80
2023-03-12T09:11:28.219Z,69.80
2023-03-12T09:12:28.174Z,32.60
2023-03-12T09:13:45.312Z,10.90
2023-03-12T09:15:01.677Z,51.60
2023-03-12T09:15:29.108Z,85.60
2023-03-12T09:16:28.181Z,40.30
2023-03-12T09:17:28.219Z,13.40
2023-03-12T09:18:28.127Z,11.50
2023-03-12T09:19:28.045Z,30.80
2023-03-12T09:20:28.081Z,89.90
2023-03-12T09:21:28.045Z,51.40
2023-03-12T09:22:28.032Z,10.60
2023-03-12T09:23:28.060Z,10.90
2023-03-12T09:24:28.002Z,94.10
2023-03-12T09:25:27.996Z,112.60
2023-03-12T09:26:27.999Z,67.50
2023-03-12T09:27:27.984Z,10.40
2023-03-12T09:28:28.298Z,10.50
2023-03-12T09:29:27.941Z,102.70
2023-03-12T09:30:28.176Z,104.10
2023-03-12T09:31:27.941Z,54.70
2023-03-12T09:32:28.049Z,10.50
2023-03-12T09:33:27.878Z,10.20
2023-03-12T09:34:27.883Z,66.90
2023-03-12T09:35:27.950Z,80.00
2023-03-12T09:36:27.844Z,34.90
2023-03-12T09:37:27.839Z,10.30
2023-03-12T09:38:27.849Z,10.70
2023-03-12T09:39:27.803Z,91.20
2023-03-12T09:40:27.827Z,65.40
2023-03-12T09:41:27.790Z,12.50
2023-03-12T09:42:27.774Z,10.00
2023-03-12T09:43:27.756Z,41.80
2023-03-12T09:44:27.723Z,102.60
2023-03-12T09:45:27.718Z,15.20
2023-03-12T09:46:27.792Z,9.80
2023-03-12T09:47:27.794Z,76.40
2023-03-12T09:48:27.730Z,136.20
2023-03-12T09:49:27.643Z,91.10
2023-03-12T09:50:27.696Z,10.20
2023-03-12T09:51:27.638Z,9.80
2023-03-12T09:52:27.638Z,136.60
2023-03-12T09:53:27.650Z,128.60
2023-03-12T09:54:27.642Z,44.00
2023-03-12T09:55:27.546Z,9.50
2023-03-12T09:56:27.615Z,58.80
2023-03-12T09:57:27.538Z,142.70
2023-03-12T09:58:27.536Z,70.60
2023-03-12T09:59:27.699Z,9.20
2023-03-12T10:00:27.518Z,9.30
2023-03-12T10:01:27.512Z,114.60
2023-03-12T10:02:27.525Z,84.40
2023-03-12T10:03:27.488Z,13.40
2023-03-12T10:04:27.491Z,10.90
2023-03-12T10:05:27.563Z,8.40
2023-03-12T10:06:27.529Z,8.80
2023-03-12T10:07:27.411Z,76.90
2023-03-12T10:08:30.354Z,79.10
2023-03-12T10:09:27.390Z,34.30
2023-03-12T10:10:27.391Z,8.60
2023-03-12T10:11:27.509Z,10.30
2023-03-12T10:12:27.364Z,65.40
2023-03-12T10:13:27.350Z,41.60
2023-03-12T10:14:27.366Z,9.00
2023-03-12T10:15:27.324Z,9.20
2023-03-12T10:16:28.051Z,45.30
2023-03-12T10:17:27.324Z,55.60
2023-03-12T10:18:27.431Z,27.70
2023-03-12T10:19:27.271Z,9.40
2023-03-12T10:20:27.289Z,22.60
2023-03-12T10:21:27.235Z,52.70
2023-03-12T10:22:27.221Z,37.50
2023-03-12T10:23:27.340Z,9.60
2023-03-12T10:24:27.204Z,9.60
2023-03-12T10:25:27.197Z,41.00
2023-03-12T10:26:27.204Z,39.70
2023-03-12T10:27:27.140Z,26.20
2023-03-12T10:28:27.176Z,9.70
2023-03-12T10:29:27.159Z,9.80
2023-03-12T10:30:27.136Z,34.70
2023-03-12T10:31:27.193Z,34.90
2023-03-12T10:32:27.133Z,16.70
2023-03-12T10:33:27.094Z,10.80
2023-03-12T10:34:27.104Z,10.70
2023-03-12T10:35:27.072Z,32.40
2023-03-12T10:36:27.049Z,31.50
2023-03-12T10:37:27.033Z,10.80
2023-03-12T10:38:27.873Z,22.20
2023-03-12T10:39:26.977Z,20.40
2023-03-12T10:40:27.022Z,10.50
2023-03-12T10:41:27.048Z,11.00
2023-03-12T10:42:26.950Z,35.20
2023-03-12T10:43:26.946Z,36.20
2023-03-12T10:44:26.941Z,23.10
2023-03-12T10:45:26.921Z,11.20
2023-03-12T10:46:27.020Z,11.00
2023-03-12T10:47:26.965Z,36.80
2023-03-12T10:48:26.916Z,34.40
2023-03-12T10:49:26.837Z,18.10
2023-03-12T10:50:26.858Z,10.90
2023-03-12T10:51:26.836Z,18.10
2023-03-12T10:52:26.831Z,42.40
2023-03-12T10:53:29.625Z,27.50
2023-03-12T10:54:26.768Z,10.90
2023-03-12T10:55:26.818Z,12.30
2023-03-12T10:56:26.856Z,51.70
2023-03-12T10:57:26.786Z,46.20
2023-03-12T10:58:26.747Z,23.40
2023-03-12T10:59:26.773Z,12.00
2023-03-12T11:00:26.721Z,45.40
2023-03-12T11:01:26.737Z,83.30
2023-03-12T11:02:26.662Z,45.10
2023-03-12T11:03:26.708Z,12.50
2023-03-12T11:04:29.835Z,14.30
2023-03-12T11:05:26.712Z,107.30
2023-03-12T11:06:26.654Z,114.60
2023-03-12T11:07:26.625Z,52.90
2023-03-12T11:08:26.585Z,13.80
2023-03-12T11:09:26.620Z,15.60
2023-03-12T11:10:26.591Z,155.70
2023-03-12T11:11:26.627Z,157.00
2023-03-12T11:12:26.572Z,77.40
2023-03-12T11:13:26.549Z,15.70
2023-03-12T11:14:26.523Z,103.80
2023-03-12T11:15:26.548Z,207.20
2023-03-12T11:16:27.036Z,148.60
2023-03-12T11:17:26.644Z,81.50
2023-03-12T11:18:26.471Z,18.40
2023-03-12T11:19:26.463Z,52.50
2023-03-12T11:20:26.453Z,244.00
2023-03-12T11:21:26.433Z,225.50
2023-03-12T11:22:26.402Z,153.40
2023-03-12T11:23:26.562Z,19.20
2023-03-12T11:24:26.394Z,22.30
2023-03-12T11:25:26.390Z,229.10
2023-03-12T11:26:26.347Z,238.70
2023-03-12T11:27:26.383Z,154.90
2023-03-12T11:28:26.369Z,18.70
2023-03-12T11:29:26.495Z,22.70
2023-03-12T11:30:26.361Z,263.10
2023-03-12T11:31:26.336Z,259.90
2023-03-12T11:32:26.284Z,179.20
2023-03-12T11:33:26.277Z,65.70
2023-03-12T11:34:26.250Z,22.60
2023-03-12T11:35:26.418Z,253.60
2023-03-12T11:36:26.208Z,272.10
2023-03-12T11:37:26.271Z,184.90
2023-03-12T11:38:26.216Z,21.40
2023-03-12T11:39:26.190Z,24.70
2023-03-12T11:40:26.154Z,270.90
2023-03-12T11:41:26.228Z,279.20
2023-03-12T11:42:26.172Z,203.30
2023-03-12T11:43:41.675Z,55.90
2023-03-12T11:44:27.127Z,23.90
2023-03-12T11:45:26.125Z,214.40
2023-03-12T11:46:26.111Z,284.20
2023-03-12T11:47:26.194Z,195.30
2023-03-12T11:48:26.094Z,114.70
2023-03-12T11:49:26.090Z,25.30
2023-03-12T11:50:26.785Z,107.00
2023-03-12T11:51:26.028Z,276.10
2023-03-12T11:52:26.020Z,243.40
2023-03-12T11:53:26.135Z,101.90
2023-03-12T11:54:25.974Z,26.10
2023-03-12T11:55:26.743Z,157.10
2023-03-12T11:56:25.942Z,271.00
2023-03-12T11:57:25.972Z,240.40
2023-03-12T11:58:25.944Z,155.00
2023-03-12T11:59:25.982Z,27.90
2023-03-12T12:00:25.905Z,137.60
2023-03-12T12:01:25.899Z,288.70
2023-03-12T12:02:25.950Z,146.80
2023-03-12T12:03:25.959Z,245.10
2023-03-12T12:04:25.828Z,184.90
2023-03-12T12:05:25.954Z,173.10
2023-03-12T12:06:25.849Z,28.10
2023-03-12T12:07:25.835Z,30.60
2023-03-12T12:08:25.841Z,225.10
2023-03-12T12:09:25.798Z,293.30
2023-03-12T12:10:25.764Z,232.70
2023-03-12T12:11:25.942Z,165.10
2023-03-12T12:12:25.754Z,28.10
2023-03-12T12:13:25.739Z,136.40
2023-03-12T12:14:25.718Z,304.00
2023-03-12T12:15:25.743Z,178.10
2023-03-12T12:16:25.723Z,142.00
2023-03-12T12:17:25.827Z,207.40
2023-03-12T12:18:25.683Z,207.70
2023-03-12T12:19:25.670Z,26.30
2023-03-12T12:20:25.645Z,29.30
2023-03-12T12:21:25.640Z,299.50
2023-03-12T12:22:25.589Z,329.20
2023-03-12T12:23:25.749Z,258.60
2023-03-12T12:24:25.578Z,64.80
2023-03-12T12:25:25.609Z,27.30
2023-03-12T12:26:25.552Z,291.10
2023-03-12T12:27:25.564Z,325.90
2023-03-12T12:28:25.516Z,232.50
2023-03-12T12:29:25.584Z,22.60
2023-03-12T12:30:25.509Z,23.80
2023-03-12T12:31:25.511Z,304.20
2023-03-12T12:32:25.517Z,301.20
2023-03-12T12:33:25.464Z,215.40
2023-03-12T12:34:25.426Z,22.30
2023-03-12T12:35:25.515Z,27.70
2023-03-12T12:36:25.425Z,288.00
2023-03-12T12:37:25.460Z,261.70
2023-03-12T12:38:25.403Z,37.60
2023-03-12T12:39:25.399Z,272.60
2023-03-12T12:40:25.374Z,215.90
2023-03-12T12:41:25.386Z,22.20
2023-03-12T12:42:25.338Z,27.70
2023-03-12T12:43:25.369Z,275.10
2023-03-12T12:44:25.320Z,299.10
2023-03-12T12:45:25.318Z,204.40
2023-03-12T12:46:25.372Z,32.60
2023-03-12T12:47:25.335Z,20.40
2023-03-12T12:48:25.265Z,159.30
2023-03-12T12:49:25.318Z,302.50
2023-03-12T12:50:25.257Z,233.80
2023-03-12T12:51:25.241Z,22.60